Port Alice, Canada
Current Conditions -  °F | °C
As of 3:00 AM on Thursday 23 Oct 2014 (Local Time) from CYZT Reporting Station
Overcast Overcast  
Wind Chill: 42°   Ceiling: 4800
Heat Index: 45°   Visibility: 15mi
Dew Point: 45°   Wind: 5mph
Humidity: 100%   Direction: 210°SSW
Pressure: 29.59"   Gusts: NA
Location:  50.38°N, 127.43°W
Report Text: CYZT 231000Z 21004KT 150V240 15SM FEW020 BKN048 OVC070 07/07 A2959 RMK SC2SC4AC2 SLP019
Loading
Personal Weather Stations






























Interactive Weather Map
Tropical Storm Tracking
New forecast layout! Learn more

10-Day Weather Forecast

Advertisements
Track Severe Weather on mobile